createdAt,value
2023-06-04T00:01:02.118Z,101434.91
2023-06-04T00:03:28.655Z,101435.72
2023-06-04T00:05:55.176Z,101436.09
2023-06-04T00:08:21.515Z,101447.19
2023-06-04T00:10:47.829Z,101441.94
2023-06-04T00:13:14.078Z,101437.19
2023-06-04T00:15:40.366Z,101442.28
2023-06-04T00:18:06.690Z,101438.44
2023-06-04T00:20:33.030Z,101443.38
2023-06-04T00:22:59.408Z,101440.22
2023-06-04T00:25:25.674Z,101445.81
2023-06-04T00:27:51.920Z,101445.56
2023-06-04T00:30:18.172Z,101447.75
2023-06-04T00:32:44.557Z,101446.44
2023-06-04T00:35:10.932Z,101446.81
2023-06-04T00:37:37.260Z,101449.53
2023-06-04T00:40:03.718Z,101444.34
2023-06-04T00:42:30.036Z,101441.44
2023-06-04T00:44:56.350Z,101437.13
2023-06-04T00:47:22.619Z,101435.34
2023-06-04T00:49:49.023Z,101432.72
2023-06-04T00:52:15.298Z,101432.75
2023-06-04T00:54:41.593Z,101433.72
2023-06-04T00:57:07.905Z,101434.41
2023-06-04T00:59:34.226Z,101436.16
2023-06-04T01:02:00.549Z,101429.97
2023-06-04T01:04:26.847Z,101415.88
2023-06-04T01:06:53.231Z,101413.25
2023-06-04T01:09:19.599Z,101415.94
2023-06-04T01:11:45.858Z,101416.03
2023-06-04T01:14:12.183Z,101415.25
2023-06-04T01:16:38.537Z,101425.03
2023-06-04T01:19:04.876Z,101425.94
2023-06-04T01:21:31.190Z,101423.31
2023-06-04T01:23:57.610Z,101428.53
2023-06-04T01:26:23.998Z,101425.88
2023-06-04T01:28:50.216Z,101424.16
2023-06-04T01:31:16.564Z,101422.53
2023-06-04T01:33:42.935Z,101423.63
2023-06-04T01:36:09.269Z,101419.53
2023-06-04T01:38:35.568Z,101423.16
2023-06-04T01:41:01.850Z,101420.63
2023-06-04T01:43:28.203Z,101418.97
2023-06-04T01:45:54.495Z,101427.84
2023-06-04T01:48:20.759Z,101417.28
2023-06-04T01:50:46.996Z,101424.50
2023-06-04T01:53:13.281Z,101412.16
2023-06-04T01:55:39.520Z,101410.47
2023-06-04T01:58:05.796Z,101410.63
2023-06-04T02:00:32.082Z,101408.69
2023-06-04T02:02:58.470Z,101410.47
2023-06-04T02:05:24.880Z,101409.53
2023-06-04T02:07:51.180Z,101415.06
2023-06-04T02:10:17.591Z,101419.78
2023-06-04T02:12:43.901Z,101427.22
2023-06-04T02:15:10.176Z,101430.16
2023-06-04T02:17:36.449Z,101423.66
2023-06-04T02:20:02.813Z,101423.09
2023-06-04T02:22:29.210Z,101418.97
2023-06-04T02:24:55.452Z,101425.19
2023-06-04T02:27:21.732Z,101425.41
2023-06-04T02:29:47.988Z,101416.81
2023-06-04T02:32:14.297Z,101417.91
2023-06-04T02:34:40.623Z,101419.78
2023-06-04T02:37:06.982Z,101414.66
2023-06-04T02:39:33.335Z,101412.13
2023-06-04T02:41:59.652Z,101405.22
2023-06-04T02:44:27.601Z,101409.78
2023-06-04T02:46:54.108Z,101416.81
2023-06-04T02:49:20.426Z,101418.59
2023-06-04T02:51:46.793Z,101422.09
2023-06-04T02:54:13.090Z,101411.56
2023-06-04T02:56:39.406Z,101413.25
2023-06-04T02:59:05.745Z,101412.16
2023-06-04T03:01:32.075Z,101405.78
2023-06-04T03:03:58.609Z,101409.75
2023-06-04T03:06:25.066Z,101399.06
2023-06-04T03:08:51.351Z,101407.28
2023-06-04T03:11:17.640Z,101403.66
2023-06-04T03:13:43.979Z,101400.00
2023-06-04T03:16:10.382Z,101392.72
2023-06-04T03:18:36.664Z,101386.59
2023-06-04T03:21:02.950Z,101393.59
2023-06-04T03:23:29.361Z,101389.16
2023-06-04T03:25:55.700Z,101397.22
2023-06-04T03:28:21.972Z,101381.41
2023-06-04T03:30:48.360Z,101384.03
2023-06-04T03:33:14.621Z,101381.25
2023-06-04T03:35:40.900Z,101380.88
2023-06-04T03:38:07.197Z,101386.94
2023-06-04T03:40:33.575Z,101380.94
2023-06-04T03:42:59.832Z,101390.56
2023-06-04T03:45:26.129Z,101393.97
2023-06-04T03:47:52.459Z,101390.56
2023-06-04T03:50:18.741Z,101390.09
2023-06-04T03:52:45.112Z,101388.53
2023-06-04T03:55:11.466Z,101391.25
2023-06-04T03:57:37.773Z,101400.16
2023-06-04T04:00:04.057Z,101401.34
2023-06-04T04:02:30.523Z,101398.00
2023-06-04T04:04:56.859Z,101388.47
2023-06-04T04:07:23.196Z,101400.84
2023-06-04T04:09:49.497Z,101391.25
2023-06-04T04:12:15.854Z,101385.84
2023-06-04T04:14:42.095Z,101383.19
2023-06-04T04:17:08.525Z,101394.38
2023-06-04T04:19:34.898Z,101391.25
2023-06-04T04:22:01.225Z,101390.78
2023-06-04T04:24:27.535Z,101387.75
2023-06-04T04:26:53.796Z,101381.19
2023-06-04T04:29:20.035Z,101376.28
2023-06-04T04:31:46.324Z,101384.56
2023-06-04T04:34:12.559Z,101378.94
2023-06-04T04:36:38.864Z,101380.97
2023-06-04T04:39:05.143Z,101376.25
2023-06-04T04:41:31.455Z,101377.69
2023-06-04T04:43:57.699Z,101384.59
2023-06-04T04:46:24.038Z,101379.00
2023-06-04T04:48:50.355Z,101381.25
2023-06-04T04:51:16.720Z,101389.72
2023-06-04T04:53:43.074Z,101391.25
2023-06-04T04:56:09.381Z,101393.69
2023-06-04T04:58:35.675Z,101393.47
2023-06-04T05:01:01.974Z,101392.78
2023-06-04T05:03:28.248Z,101395.75
2023-06-04T05:05:54.633Z,101401.81
2023-06-04T05:08:20.993Z,101404.03
2023-06-04T05:10:47.249Z,101400.03
2023-06-04T05:13:13.517Z,101410.69
2023-06-04T05:15:39.826Z,101413.38
2023-06-04T05:18:06.243Z,101411.50
2023-06-04T05:20:32.515Z,101410.69
2023-06-04T05:22:58.925Z,101406.84
2023-06-04T05:25:25.285Z,101410.09
2023-06-04T05:27:51.630Z,101406.44
2023-06-04T05:30:17.971Z,101402.59
2023-06-04T05:32:44.268Z,101414.44
2023-06-04T05:35:10.616Z,101411.28
2023-06-04T05:37:36.926Z,101412.00
2023-06-04T05:40:03.201Z,101406.19
2023-06-04T05:42:29.464Z,101407.31
2023-06-04T05:44:55.717Z,101406.59
2023-06-04T05:47:22.017Z,101410.38
2023-06-04T05:49:48.398Z,101412.72
2023-06-04T05:52:14.678Z,101418.75
2023-06-04T05:54:40.976Z,101421.34
2023-06-04T05:57:07.242Z,101429.59
2023-06-04T05:59:33.598Z,101432.28
2023-06-04T06:02:00.023Z,101429.94
2023-06-04T06:04:26.403Z,101436.38
2023-06-04T06:06:52.755Z,101430.66
2023-06-04T06:09:19.024Z,101437.00
2023-06-04T06:11:45.267Z,101445.63
2023-06-04T06:14:11.566Z,101448.38
2023-06-04T06:16:37.953Z,101447.63
2023-06-04T06:19:04.256Z,101447.91
2023-06-04T06:21:30.607Z,101455.31
2023-06-04T06:23:56.913Z,101473.06
2023-06-04T06:26:23.240Z,101477.28
2023-06-04T06:28:49.502Z,101477.75
2023-06-04T06:31:15.874Z,101480.47
2023-06-04T06:33:42.395Z,101479.41
2023-06-04T06:36:08.784Z,101474.59
2023-06-04T06:38:35.344Z,101487.63
2023-06-04T06:41:01.623Z,101489.78
2023-06-04T06:43:27.955Z,101493.19
2023-06-04T06:45:54.214Z,101502.97
2023-06-04T06:48:20.559Z,101498.69
2023-06-04T06:50:46.886Z,101506.88
2023-06-04T06:53:13.180Z,101514.25
2023-06-04T06:55:39.534Z,101522.75
2023-06-04T06:58:05.823Z,101528.34
2023-06-04T07:00:32.150Z,101526.16
2023-06-04T07:02:58.661Z,101533.25
2023-06-04T07:05:25.113Z,101537.41
2023-06-04T07:07:51.378Z,101540.63
2023-06-04T07:10:17.648Z,101541.78
2023-06-04T07:12:44.053Z,101537.47
2023-06-04T07:15:10.387Z,101529.94
2023-06-04T07:17:36.817Z,101536.53
2023-06-04T07:20:03.130Z,101533.28
2023-06-04T07:22:29.466Z,101532.78
2023-06-04T07:24:55.846Z,101528.09
2023-06-04T07:27:22.247Z,101525.97
2023-06-04T07:29:48.617Z,101528.25
2023-06-04T07:32:14.965Z,101519.72
2023-06-04T07:34:41.358Z,101522.19
2023-06-04T07:37:07.708Z,101520.09
2023-06-04T07:39:34.075Z,101515.84
2023-06-04T07:42:00.489Z,101513.41
2023-06-04T07:44:26.823Z,101515.41
2023-06-04T07:46:53.132Z,101522.22
2023-06-04T07:49:19.497Z,101523.28
2023-06-04T07:51:45.852Z,101527.88
2023-06-04T07:54:12.176Z,101547.41
2023-06-04T07:56:38.555Z,101552.59
2023-06-04T07:59:04.936Z,101539.22
2023-06-04T08:01:31.228Z,101543.31
2023-06-04T08:03:57.729Z,101552.16
2023-06-04T08:06:24.215Z,101553.34
2023-06-04T08:08:50.477Z,101540.59
2023-06-04T08:11:16.853Z,101546.41
2023-06-04T08:13:43.145Z,101536.34
2023-06-04T08:16:09.482Z,101550.66
2023-06-04T08:18:35.841Z,101551.13
2023-06-04T08:21:02.225Z,101544.72
2023-06-04T08:23:28.668Z,101543.53
2023-06-04T08:25:54.982Z,101538.53
2023-06-04T08:28:21.365Z,101540.13
2023-06-04T08:30:47.699Z,101547.16
2023-06-04T08:33:14.067Z,101550.59
2023-06-04T08:35:40.482Z,101555.91
2023-06-04T08:38:06.822Z,101549.31
2023-06-04T08:40:33.113Z,101545.34
2023-06-04T08:42:59.458Z,101547.75
2023-06-04T08:45:25.737Z,101536.28
2023-06-04T08:47:52.179Z,101544.47
2023-06-04T08:50:18.575Z,101544.34
2023-06-04T08:52:44.968Z,101545.03
2023-06-04T08:55:11.305Z,101543.72
2023-06-04T08:57:37.603Z,101549.56
2023-06-04T09:00:03.902Z,101548.97
2023-06-04T09:02:30.359Z,101545.22
2023-06-04T09:04:56.732Z,101554.41
2023-06-04T09:07:23.004Z,101560.03
2023-06-04T09:10:00.462Z,101560.56
2023-06-04T09:12:35.707Z,101572.91
2023-06-04T09:15:02.095Z,101578.88
2023-06-04T09:17:28.421Z,101572.38
2023-06-04T09:19:54.845Z,101574.34
2023-06-04T09:22:21.206Z,101582.31
2023-06-04T09:24:47.587Z,101584.25
2023-06-04T09:27:13.836Z,101587.03
2023-06-04T09:29:40.186Z,101584.59
2023-06-04T09:32:06.531Z,101596.13
2023-06-04T09:34:32.919Z,101602.56
2023-06-04T09:36:59.299Z,101597.19
2023-06-04T09:39:25.584Z,101602.34
2023-06-04T09:41:51.906Z,101603.91
2023-06-04T09:44:18.166Z,101607.75
2023-06-04T09:46:44.544Z,101606.06
2023-06-04T09:49:10.828Z,101604.41
2023-06-04T09:51:37.140Z,101601.06
2023-06-04T09:54:03.525Z,101600.47
2023-06-04T09:56:29.830Z,101594.88
2023-06-04T09:58:56.179Z,101595.31
2023-06-04T10:01:22.520Z,101596.47
2023-06-04T10:03:48.994Z,101600.06
2023-06-04T10:06:15.354Z,101608.03
2023-06-04T10:08:41.622Z,101614.69
2023-06-04T10:11:08.193Z,101608.09
2023-06-04T10:13:34.625Z,101611.41
2023-06-04T10:16:00.957Z,101602.41
2023-06-04T10:18:27.350Z,101607.13
2023-06-04T10:20:53.641Z,101599.25
2023-06-04T10:23:19.971Z,101593.63
2023-06-04T10:25:46.282Z,101598.66
2023-06-04T10:28:12.583Z,101598.44
2023-06-04T10:30:38.899Z,101605.13
2023-06-04T10:33:05.296Z,101603.06
2023-06-04T10:35:31.632Z,101599.94
2023-06-04T10:37:57.924Z,101606.75
2023-06-04T10:40:24.238Z,101595.41
2023-06-04T10:42:50.540Z,101592.84
2023-06-04T10:45:16.900Z,101582.13
2023-06-04T10:47:43.223Z,101579.72
2023-06-04T10:50:09.557Z,101582.94
2023-06-04T10:52:35.865Z,101584.34
2023-06-04T10:55:02.149Z,101585.75
2023-06-04T10:57:28.505Z,101580.69
2023-06-04T10:59:54.791Z,101569.47
2023-06-04T11:02:21.153Z,101579.25
2023-06-04T11:04:47.459Z,101574.44
2023-06-04T11:07:13.807Z,101580.50
2023-06-04T11:09:40.162Z,101566.41
2023-06-04T11:12:06.524Z,101566.13
2023-06-04T11:14:32.943Z,101565.56
2023-06-04T11:16:59.306Z,101560.22
2023-06-04T11:19:25.615Z,101559.81
2023-06-04T11:21:51.932Z,101562.47
2023-06-04T11:24:18.370Z,101558.69
2023-06-04T11:26:53.407Z,101559.38
2023-06-04T11:29:23.355Z,101562.81
2023-06-04T11:31:49.698Z,101559.53
2023-06-04T11:34:16.101Z,101548.97
2023-06-04T11:36:42.395Z,101550.81
2023-06-04T11:39:08.721Z,101551.06
2023-06-04T11:41:35.088Z,101553.50
2023-06-04T11:44:01.363Z,101537.16
2023-06-04T11:46:27.711Z,101539.78
2023-06-04T11:48:54.161Z,101543.88
2023-06-04T11:51:20.562Z,101549.53
2023-06-04T11:53:46.852Z,101543.84
2023-06-04T11:56:13.186Z,101547.22
2023-06-04T11:58:39.528Z,101539.19
2023-06-04T12:01:05.947Z,101544.63
2023-06-04T12:03:32.387Z,101560.22
2023-06-04T12:05:58.755Z,101558.97
2023-06-04T12:08:25.086Z,101571.34
2023-06-04T12:10:51.384Z,101566.59
2023-06-04T12:13:17.701Z,101569.31
2023-06-04T12:15:44.161Z,101559.25
2023-06-04T12:18:10.448Z,101537.63
2023-06-04T12:20:36.810Z,101524.94
2023-06-04T12:23:03.263Z,101486.06
2023-06-04T12:25:29.704Z,101463.47
2023-06-04T12:27:56.030Z,101450.91
2023-06-04T12:30:22.334Z,101451.91
2023-06-04T12:32:48.748Z,101452.38
2023-06-04T12:35:15.121Z,101449.03
2023-06-04T12:37:41.484Z,101446.31
2023-06-04T12:40:07.782Z,101438.44
2023-06-04T12:42:34.065Z,101423.88
2023-06-04T12:45:00.368Z,101432.72
2023-06-04T12:47:26.737Z,101433.69
2023-06-04T12:49:53.103Z,101436.84
2023-06-04T12:52:19.414Z,101420.06
2023-06-04T12:54:45.780Z,101412.78
2023-06-04T12:57:12.101Z,101417.59
2023-06-04T12:59:38.414Z,101422.22
2023-06-04T13:02:04.781Z,101421.00
2023-06-04T13:04:31.125Z,101434.09
2023-06-04T13:06:57.504Z,101438.88
2023-06-04T13:09:23.803Z,101460.13
2023-06-04T13:11:50.132Z,101461.72
2023-06-04T13:14:16.495Z,101480.50
2023-06-04T13:16:43.033Z,101474.44
2023-06-04T13:19:09.451Z,101476.13
2023-06-04T13:21:35.739Z,101472.16
2023-06-04T13:24:02.067Z,101477.94
2023-06-04T13:26:28.412Z,101479.56
2023-06-04T13:28:54.707Z,101491.06
2023-06-04T13:31:21.006Z,101494.53
2023-06-04T13:33:47.380Z,101491.56
2023-06-04T13:36:13.738Z,101494.84
2023-06-04T13:38:40.035Z,101481.06
2023-06-04T13:41:06.496Z,101486.09
2023-06-04T13:43:32.893Z,101487.34
2023-06-04T13:45:59.216Z,101490.25
2023-06-04T13:48:25.474Z,101491.63
2023-06-04T13:50:51.787Z,101490.78
2023-06-04T13:53:18.064Z,101493.31
2023-06-04T13:55:44.352Z,101503.19
2023-06-04T13:58:10.787Z,101515.41
2023-06-04T14:00:37.106Z,101503.09
2023-06-04T14:03:04.778Z,101505.22
2023-06-04T14:05:31.235Z,101494.97
2023-06-04T14:07:57.590Z,101494.84
2023-06-04T14:10:23.978Z,101486.34
2023-06-04T14:12:50.365Z,101480.81
2023-06-04T14:15:16.789Z,101473.41
2023-06-04T14:17:43.312Z,101480.00
2023-06-04T14:20:09.753Z,101473.28
2023-06-04T14:22:36.047Z,101463.13
2023-06-04T14:25:02.413Z,101450.84
2023-06-04T14:27:28.721Z,101437.78
2023-06-04T14:29:54.989Z,101425.03
2023-06-04T14:32:21.337Z,101415.56
2023-06-04T14:34:47.629Z,101406.41
2023-06-04T14:37:13.913Z,101420.25
2023-06-04T14:39:40.279Z,101420.38
2023-06-04T14:42:06.611Z,101422.47
2023-06-04T14:44:32.951Z,101424.03
2023-06-04T14:46:59.363Z,101422.59
2023-06-04T14:49:25.633Z,101417.91
2023-06-04T14:51:51.914Z,101427.13
2023-06-04T14:54:18.211Z,101437.06
2023-06-04T14:56:44.477Z,101434.69
2023-06-04T14:59:10.787Z,101444.03
2023-06-04T15:01:37.156Z,101447.22
2023-06-04T15:04:03.672Z,101449.78
2023-06-04T15:06:30.197Z,101442.41
2023-06-04T15:08:56.540Z,101452.09
2023-06-04T15:11:22.840Z,101458.88
2023-06-04T15:13:49.140Z,101463.34
2023-06-04T15:16:15.462Z,101472.78
2023-06-04T15:18:41.882Z,101471.78
2023-06-04T15:21:08.422Z,101469.25
2023-06-04T15:23:34.814Z,101468.53
2023-06-04T15:26:01.112Z,101467.97
2023-06-04T15:28:27.420Z,101464.69
2023-06-04T15:30:53.705Z,101480.38
2023-06-04T15:33:19.975Z,101479.63
2023-06-04T15:35:46.298Z,101493.78
2023-06-04T15:38:12.608Z,101491.88
2023-06-04T15:40:38.902Z,101488.88
2023-06-04T15:43:05.234Z,101487.03
2023-06-04T15:45:31.529Z,101498.66
2023-06-04T15:47:57.994Z,101492.81
2023-06-04T15:50:24.332Z,101488.69
2023-06-04T15:52:50.646Z,101483.94
2023-06-04T15:55:16.937Z,101484.16
2023-06-04T15:57:43.214Z,101480.44
2023-06-04T16:00:09.426Z,101472.97
2023-06-04T16:02:35.736Z,101476.47
2023-06-04T16:05:02.170Z,101480.81
2023-06-04T16:07:28.483Z,101477.09
2023-06-04T16:09:54.817Z,101457.75
2023-06-04T16:12:21.144Z,101455.66
2023-06-04T16:14:47.440Z,101451.06
2023-06-04T16:17:13.792Z,101439.84
2023-06-04T16:19:40.132Z,101425.50
2023-06-04T16:22:06.542Z,101421.56
2023-06-04T16:24:32.828Z,101407.91
2023-06-04T16:26:59.127Z,101401.31
2023-06-04T16:29:25.491Z,101391.53
2023-06-04T16:31:51.841Z,101397.47
2023-06-04T16:34:18.215Z,101402.78
2023-06-04T16:36:44.555Z,101405.69
2023-06-04T16:39:10.851Z,101413.16
2023-06-04T16:41:37.123Z,101408.63
2023-06-04T16:44:03.615Z,101399.16
2023-06-04T16:46:29.914Z,101398.97
2023-06-04T16:48:56.195Z,101399.69
2023-06-04T16:51:22.555Z,101397.47
2023-06-04T16:53:49.117Z,101399.63
2023-06-04T16:56:15.480Z,101402.50
2023-06-04T16:58:41.765Z,101404.44
2023-06-04T17:01:08.116Z,101411.03
2023-06-04T17:03:34.466Z,101412.69
2023-06-04T17:06:00.801Z,101405.69
2023-06-04T17:08:27.137Z,101399.53
2023-06-04T17:10:53.393Z,101408.44
2023-06-04T17:13:19.614Z,101409.97
2023-06-04T17:15:45.909Z,101405.72
2023-06-04T17:18:12.365Z,101410.63
2023-06-04T17:20:38.865Z,101415.31
2023-06-04T17:23:05.170Z,101416.19
2023-06-04T17:25:33.888Z,101408.09
2023-06-04T17:28:00.174Z,101403.63
2023-06-04T17:30:26.469Z,101404.50
2023-06-04T17:32:52.968Z,101403.09
2023-06-04T17:35:19.398Z,101401.72
2023-06-04T17:37:45.651Z,101407.91
2023-06-04T17:40:11.948Z,101406.09
2023-06-04T17:42:38.228Z,101411.75
2023-06-04T17:45:04.531Z,101420.03
2023-06-04T17:47:30.829Z,101424.91
2023-06-04T17:49:57.215Z,101430.03
2023-06-04T17:52:23.546Z,101435.66
2023-06-04T17:54:49.861Z,101428.84
2023-06-04T17:57:16.090Z,101432.78
2023-06-04T17:59:42.447Z,101436.56
2023-06-04T18:02:08.912Z,101430.81
2023-06-04T18:04:35.251Z,101433.59
2023-06-04T18:07:01.639Z,101435.38
2023-06-04T18:09:27.905Z,101445.19
2023-06-04T18:11:54.201Z,101432.03
2023-06-04T18:14:20.481Z,101443.59
2023-06-04T18:16:46.859Z,101443.59
2023-06-04T18:19:13.176Z,101448.88
2023-06-04T18:21:39.461Z,101448.03
2023-06-04T18:24:05.802Z,101436.13
2023-06-04T18:26:32.123Z,101436.81
2023-06-04T18:28:58.353Z,101427.44
2023-06-04T18:31:24.678Z,101427.78
2023-06-04T18:33:54.057Z,101431.69
2023-06-04T18:36:20.336Z,101431.38
2023-06-04T18:38:46.602Z,101433.59
2023-06-04T18:41:12.905Z,101438.34
2023-06-04T18:43:39.189Z,101433.25
2023-06-04T18:46:05.546Z,101433.44
2023-06-04T18:48:31.828Z,101435.44
2023-06-04T18:50:58.182Z,101433.03
2023-06-04T18:53:24.473Z,101434.94
2023-06-04T18:55:50.762Z,101439.66
2023-06-04T18:58:17.118Z,101436.38
2023-06-04T19:00:43.429Z,101435.53
2023-06-04T19:03:09.706Z,101430.97
2023-06-04T19:05:36.031Z,101433.63
2023-06-04T19:08:02.339Z,101425.47
2023-06-04T19:10:28.671Z,101427.28
2023-06-04T19:12:55.009Z,101429.69
2023-06-04T19:15:21.295Z,101431.72
2023-06-04T19:17:47.586Z,101423.88
2023-06-04T19:20:13.904Z,101433.72
2023-06-04T19:22:40.202Z,101433.28
2023-06-04T19:25:06.471Z,101437.25
2023-06-04T19:27:32.769Z,101436.28
2023-06-04T19:29:59.023Z,101439.81
2023-06-04T19:32:25.399Z,101436.63
2023-06-04T19:34:51.829Z,101430.00
2023-06-04T19:37:18.216Z,101440.16
2023-06-04T19:39:44.526Z,101445.56
2023-06-04T19:42:10.805Z,101448.22
2023-06-04T19:44:37.136Z,101451.81
2023-06-04T19:47:03.500Z,101453.72
2023-06-04T19:49:29.853Z,101463.56
2023-06-04T19:51:56.195Z,101457.69
2023-06-04T19:54:22.542Z,101465.13
2023-06-04T19:56:48.891Z,101461.78
2023-06-04T19:59:15.202Z,101456.97
2023-06-04T20:01:41.477Z,101459.38
2023-06-04T20:04:07.791Z,101461.91
2023-06-04T20:06:34.116Z,101466.00
2023-06-04T20:09:00.445Z,101473.16
2023-06-04T20:11:26.768Z,101464.84
2023-06-04T20:13:53.012Z,101471.53
2023-06-04T20:16:19.299Z,101462.72
2023-06-04T20:18:45.584Z,101469.97
2023-06-04T20:21:11.911Z,101464.78
2023-06-04T20:23:38.334Z,101465.25
2023-06-04T20:26:04.629Z,101466.28
2023-06-04T20:28:30.897Z,101476.97
2023-06-04T20:30:57.153Z,101471.13
2023-06-04T20:33:23.543Z,101463.56
2023-06-04T20:35:49.754Z,101473.47
2023-06-04T20:38:16.106Z,101471.59
2023-06-04T20:40:42.424Z,101471.75
2023-06-04T20:43:08.718Z,101479.78
2023-06-04T20:45:34.981Z,101480.53
2023-06-04T20:48:01.379Z,101485.16
2023-06-04T20:50:27.833Z,101496.56
2023-06-04T20:52:54.203Z,101489.84
2023-06-04T20:55:20.518Z,101496.16
2023-06-04T20:57:46.876Z,101495.38
2023-06-04T21:00:13.218Z,101499.34
2023-06-04T21:02:39.627Z,101490.97
2023-06-04T21:05:06.043Z,101488.78
2023-06-04T21:07:32.370Z,101499.69
2023-06-04T21:09:58.840Z,101497.53
2023-06-04T21:12:25.070Z,101498.59
2023-06-04T21:14:51.318Z,101492.13
2023-06-04T21:17:17.624Z,101489.59
2023-06-04T21:19:43.973Z,101485.31
2023-06-04T21:22:10.240Z,101497.59
2023-06-04T21:24:36.519Z,101501.94
2023-06-04T21:27:02.889Z,101490.88
2023-06-04T21:29:29.237Z,101499.28
2023-06-04T21:31:55.598Z,101495.38
2023-06-04T21:34:21.906Z,101487.78
2023-06-04T21:36:48.201Z,101489.13
2023-06-04T21:39:14.504Z,101491.00
2023-06-04T21:41:40.805Z,101487.50
2023-06-04T21:44:07.094Z,101485.72
2023-06-04T21:46:34.078Z,101474.06
2023-06-04T21:49:00.503Z,101472.19
2023-06-04T21:51:26.822Z,101474.81
2023-06-04T21:53:53.123Z,101472.97
2023-06-04T21:56:19.400Z,101469.31
2023-06-04T21:58:45.693Z,101468.13
2023-06-04T22:01:12.144Z,101460.09
2023-06-04T22:03:38.825Z,101461.81
2023-06-04T22:06:05.203Z,101453.72
2023-06-04T22:08:31.515Z,101456.44
2023-06-04T22:10:57.851Z,101457.28
2023-06-04T22:13:24.263Z,101451.66
2023-06-04T22:15:50.573Z,101446.47
2023-06-04T22:18:16.972Z,101448.34
2023-06-04T22:20:43.407Z,101449.34
2023-06-04T22:23:09.706Z,101453.19
2023-06-04T22:25:36.076Z,101459.50
2023-06-04T22:28:02.383Z,101452.41
2023-06-04T22:30:28.709Z,101458.56
2023-06-04T22:32:55.150Z,101455.84
2023-06-04T22:35:21.512Z,101456.59
2023-06-04T22:37:47.809Z,101447.66
2023-06-04T22:40:14.129Z,101447.00
2023-06-04T22:42:40.479Z,101447.84
2023-06-04T22:45:06.776Z,101448.88
2023-06-04T22:47:33.067Z,101451.59
2023-06-04T22:49:59.400Z,101453.28
2023-06-04T22:52:25.677Z,101446.81
2023-06-04T22:54:52.029Z,101444.00
2023-06-04T22:57:18.337Z,101446.81
2023-06-04T22:59:44.647Z,101452.00
2023-06-04T23:02:11.133Z,101447.84
2023-06-04T23:04:37.546Z,101454.22
2023-06-04T23:07:03.811Z,101453.69
2023-06-04T23:09:30.108Z,101455.56
2023-06-04T23:11:56.427Z,101448.91
2023-06-04T23:14:22.753Z,101446.34
2023-06-04T23:16:49.119Z,101445.50
2023-06-04T23:19:15.432Z,101452.50
2023-06-04T23:21:41.698Z,101434.25
2023-06-04T23:24:08.038Z,101445.44
2023-06-04T23:26:34.546Z,101436.66
2023-06-04T23:29:00.855Z,101431.38
2023-06-04T23:31:27.233Z,101423.47
2023-06-04T23:33:53.587Z,101427.72
2023-06-04T23:36:19.940Z,101412.72
2023-06-04T23:38:46.238Z,101417.09
2023-06-04T23:41:12.571Z,101419.81
2023-06-04T23:43:38.898Z,101408.41
2023-06-04T23:46:05.276Z,101411.94
2023-06-04T23:48:31.544Z,101403.22
2023-06-04T23:50:57.828Z,101410.03
2023-06-04T23:53:24.107Z,101405.56
2023-06-04T23:55:50.398Z,101402.88
2023-06-04T23:58:16.633Z,101400.28
